Time;durP1;ratioP1;P1;durP2;ratioP2;P2;SDS_P1;SDS_P2;PMS_P1;PMS_P2;Temp;Humidity;BMP_temperature;BMP_pressure;BME280_temperature;BME280_humidity;BME280_pressure;Samples;Min_cycle;Max_cycle;Signal;HPM_P1;HPM_P2
2022/01/07 00:01:12;;;;;;;14.50;13.90;;;18.60;75.20;;;;;;5053264;28;20447;-48
2022/01/07 00:03:39;;;;;;;13.70;13.30;;;18.60;75.50;;;;;;5059021;28;20468;-49
2022/01/07 00:06:06;;;;;;;14.07;13.57;;;18.60;75.60;;;;;;5057811;28;20484;-52
2022/01/07 00:08:33;;;;;;;14.50;13.80;;;18.60;75.80;;;;;;5057550;28;20447;-56
2022/01/07 00:11:01;;;;;;;14.17;13.77;;;18.60;76.00;;;;;;5048089;28;20445;-49
2022/01/07 00:13:28;;;;;;;13.80;13.30;;;18.60;76.10;;;;;;5039988;28;20472;-49
2022/01/07 00:15:55;;;;;;;14.00;13.60;;;18.50;76.40;;;;;;5039455;28;20448;-50
2022/01/07 00:18:23;;;;;;;13.80;13.30;;;18.50;77.00;;;;;;5042533;28;20445;-53
2022/01/07 00:20:49;;;;;;;13.97;13.57;;;18.50;77.20;;;;;;5057547;28;20440;-54
2022/01/07 00:23:16;;;;;;;14.37;13.77;;;18.40;77.50;;;;;;5055361;28;20472;-50
2022/01/07 00:25:43;;;;;;;13.77;13.30;;;18.40;77.70;;;;;;5057694;28;20847;-51
2022/01/07 00:28:11;;;;;;;14.27;13.77;;;18.40;78.00;;;;;;5055781;28;20452;-51
2022/01/07 00:30:38;;;;;;;13.80;13.30;;;18.30;78.30;;;;;;5036611;28;20457;-55
2022/01/07 00:33:05;;;;;;;13.50;13.10;;;18.40;78.50;;;;;;5036011;28;20472;-52
2022/01/07 00:35:32;;;;;;;14.30;13.90;;;18.40;78.60;;;;;;5036406;28;20835;-56
2022/01/07 00:37:59;;;;;;;13.90;13.50;;;18.30;78.50;;;;;;5044431;28;20445;-50
2022/01/07 00:40:27;;;;;;;14.57;14.07;;;18.30;78.90;;;;;;5040431;28;20448;-52
2022/01/07 00:42:54;;;;;;;14.23;13.73;;;18.30;79.20;;;;;;5038778;28;20768;-50
2022/01/07 00:45:25;;;;;;;13.53;13.07;;;18.20;79.40;;;;;;5038696;28;21013;-51
2022/01/07 00:47:53;;;;;;;14.40;13.80;;;18.20;80.10;;;;;;5049785;28;20452;-52
2022/01/07 00:50:21;;;;;;;13.90;13.47;;;18.10;80.70;;;;;;5058405;28;20872;-51
2022/01/07 00:52:48;;;;;;;14.60;14.10;;;18.10;81.20;;;;;;5059336;28;20460;-48
2022/01/07 00:55:16;;;;;;;15.33;14.83;;;18.00;81.50;;;;;;5058884;28;20444;-48
2022/01/07 00:57:42;;;;;;;14.30;13.90;;;18.00;82.20;;;;;;5046620;28;20460;-48
2022/01/07 01:00:12;;;;;;;14.13;13.73;;;18.00;82.40;;;;;;5038335;28;20931;-48
2022/01/07 01:02:41;;;;;;;13.70;13.27;;;18.00;82.80;;;;;;5038536;28;20476;-50
2022/01/07 01:05:10;;;;;;;14.83;14.10;;;18.00;82.90;;;;;;5037774;28;20476;-49
2022/01/07 01:07:36;;;;;;;14.03;13.63;;;18.00;83.20;;;;;;5038867;28;20437;-50
2022/01/07 01:10:06;;;;;;;14.03;13.63;;;17.90;83.50;;;;;;5038435;28;20955;-51
2022/01/07 01:12:34;;;;;;;13.80;13.40;;;17.90;83.90;;;;;;5038673;28;20857;-51
2022/01/07 01:15:00;;;;;;;13.80;13.40;;;17.90;84.30;;;;;;5038969;28;20964;-50
2022/01/07 01:17:27;;;;;;;14.07;13.67;;;17.80;84.70;;;;;;5039791;28;20449;-50
2022/01/07 01:19:55;;;;;;;14.80;14.10;;;17.80;85.00;;;;;;5037780;28;20461;-48
2022/01/07 01:22:22;;;;;;;14.20;13.60;;;17.80;85.20;;;;;;5037300;28;20469;-48
2022/01/07 01:24:49;;;;;;;14.43;14.03;;;17.80;85.30;;;;;;5036957;28;20456;-49
2022/01/07 01:27:15;;;;;;;15.03;14.40;;;17.80;85.50;;;;;;5044315;28;20476;-50
2022/01/07 01:29:42;;;;;;;13.70;13.30;;;17.70;85.60;;;;;;5057603;28;20459;-51
2022/01/07 01:32:09;;;;;;;13.50;13.10;;;17.70;86.20;;;;;;5054628;28;20452;-50
2022/01/07 01:34:36;;;;;;;13.67;13.20;;;17.70;86.40;;;;;;5058542;28;20453;-50
2022/01/07 01:37:04;;;;;;;13.70;13.30;;;17.70;86.30;;;;;;5058213;28;20437;-50
2022/01/07 01:39:31;;;;;;;14.63;14.03;;;17.70;86.40;;;;;;5042187;28;20448;-48
2022/01/07 01:41:58;;;;;;;14.70;14.10;;;17.70;86.80;;;;;;5042497;28;21011;-51
2022/01/07 01:44:25;;;;;;;14.20;13.70;;;17.70;87.00;;;;;;5041846;28;20441;-53
2022/01/07 01:46:51;;;;;;;13.40;13.00;;;17.60;87.10;;;;;;5044134;28;20487;-49
2022/01/07 01:49:18;;;;;;;13.80;13.30;;;17.60;87.80;;;;;;5062242;28;20844;-54
2022/01/07 01:51:45;;;;;;;14.07;13.47;;;17.60;87.50;;;;;;5061456;28;20454;-50
2022/01/07 01:54:13;;;;;;;14.63;14.20;;;17.70;87.80;;;;;;5061201;28;20473;-52
2022/01/07 01:56:41;;;;;;;14.37;13.70;;;17.60;87.50;;;;;;5045902;28;20441;-53
2022/01/07 01:59:08;;;;;;;14.23;13.80;;;17.60;87.70;;;;;;5042359;28;20445;-52
2022/01/07 02:01:35;;;;;;;13.57;13.07;;;17.60;88.10;;;;;;5042773;28;20453;-51
2022/01/07 02:04:01;;;;;;;13.70;13.30;;;17.60;87.80;;;;;;5043065;28;20440;-49
2022/01/07 02:06:28;;;;;;;14.23;13.80;;;17.60;88.10;;;;;;5054539;28;20483;-49
2022/01/07 02:08:55;;;;;;;14.23;13.73;;;17.60;88.20;;;;;;5062777;28;20456;-50
2022/01/07 02:11:24;;;;;;;13.30;12.90;;;17.60;88.60;;;;;;5061230;28;20455;-52
2022/01/07 02:13:56;;;;;;;13.90;13.40;;;17.60;88.70;;;;;;5056122;28;20845;-49
2022/01/07 02:16:25;;;;;;;13.77;13.37;;;17.60;88.80;;;;;;5041943;28;20448;-46
2022/01/07 02:18:52;;;;;;;13.63;13.20;;;17.50;88.90;;;;;;5034665;28;20890;-48
2022/01/07 02:21:21;;;;;;;13.30;12.90;;;17.50;89.20;;;;;;5034530;28;20886;-48
2022/01/07 02:23:47;;;;;;;13.87;13.47;;;17.50;89.40;;;;;;5038249;28;20545;-49
2022/01/07 02:26:15;;;;;;;13.90;13.50;;;17.50;89.60;;;;;;5052331;28;20612;-51
2022/01/07 02:28:42;;;;;;;13.37;12.90;;;17.50;89.20;;;;;;5054281;28;20812;-48
2022/01/07 02:31:09;;;;;;;13.73;13.33;;;17.50;89.30;;;;;;5054117;28;20445;-49
2022/01/07 02:33:35;;;;;;;13.70;13.10;;;17.50;89.70;;;;;;5050995;28;20483;-48
2022/01/07 02:36:07;;;;;;;13.67;13.20;;;17.50;89.80;;;;;;5034333;28;20818;-47
2022/01/07 02:38:35;;;;;;;13.20;12.80;;;17.40;90.00;;;;;;5034213;28;20445;-47
2022/01/07 02:41:02;;;;;;;13.97;13.37;;;17.50;90.00;;;;;;5033952;28;20460;-51
2022/01/07 02:43:29;;;;;;;14.10;13.50;;;17.50;90.10;;;;;;5034609;28;20819;-48
2022/01/07 02:45:55;;;;;;;14.17;13.67;;;17.40;90.10;;;;;;5052993;28;20538;-47
2022/01/07 02:48:22;;;;;;;13.70;13.30;;;17.40;90.30;;;;;;5053877;28;20455;-51
2022/01/07 02:50:49;;;;;;;13.73;13.23;;;17.40;90.50;;;;;;5053791;28;20444;-48
2022/01/07 02:53:16;;;;;;;13.40;13.00;;;17.40;90.60;;;;;;5053631;28;20471;-47
2022/01/07 02:55:44;;;;;;;13.57;12.87;;;17.40;90.50;;;;;;5033982;28;20452;-51
2022/01/07 02:58:11;;;;;;;13.00;12.60;;;17.40;90.50;;;;;;5033643;28;20449;-50
2022/01/07 03:00:38;;;;;;;12.80;12.50;;;17.40;90.60;;;;;;5033553;28;20449;-48
2022/01/07 03:03:08;;;;;;;13.87;13.40;;;17.40;90.50;;;;;;5034342;28;20469;-48
2022/01/07 03:05:39;;;;;;;13.17;12.87;;;17.40;90.60;;;;;;5033465;28;20483;-49
2022/01/07 03:08:05;;;;;;;12.97;12.57;;;17.40;90.50;;;;;;5033591;28;20927;-47
2022/01/07 03:10:33;;;;;;;13.20;12.80;;;17.40;90.50;;;;;;5033400;28;20440;-48
2022/01/07 03:13:03;;;;;;;13.90;13.50;;;17.40;90.70;;;;;;5042883;28;20476;-47
2022/01/07 03:15:36;;;;;;;13.53;13.13;;;17.40;90.70;;;;;;5053412;28;20448;-49
2022/01/07 03:18:04;;;;;;;13.03;12.63;;;17.40;90.70;;;;;;5053410;28;20444;-47
2022/01/07 03:20:33;;;;;;;13.10;12.70;;;17.30;90.90;;;;;;5053204;28;20448;-48
2022/01/07 03:23:00;;;;;;;13.20;12.80;;;17.30;91.00;;;;;;5042359;28;20469;-48
2022/01/07 03:25:26;;;;;;;12.53;12.13;;;17.30;91.10;;;;;;5033007;28;20445;-47
2022/01/07 03:27:53;;;;;;;13.87;13.37;;;17.30;91.20;;;;;;5033131;28;20448;-50
2022/01/07 03:30:21;;;;;;;13.60;13.10;;;17.30;91.10;;;;;;5033108;28;20445;-47
2022/01/07 03:32:48;;;;;;;13.30;12.90;;;17.30;91.20;;;;;;5040815;28;20464;-48
2022/01/07 03:35:17;;;;;;;12.77;12.37;;;17.30;91.30;;;;;;5052808;28;20454;-47
2022/01/07 03:37:44;;;;;;;13.17;12.77;;;17.30;91.20;;;;;;5052861;28;20539;-50
2022/01/07 03:40:13;;;;;;;12.90;12.50;;;17.30;91.10;;;;;;5052772;28;20453;-47
2022/01/07 03:42:40;;;;;;;13.23;12.83;;;17.30;91.40;;;;;;5045113;28;20465;-48
2022/01/07 03:45:09;;;;;;;13.00;12.70;;;17.30;91.30;;;;;;5032807;28;20491;-48
2022/01/07 03:47:37;;;;;;;12.80;12.40;;;17.30;91.20;;;;;;5032685;28;20492;-52
2022/01/07 03:50:06;;;;;;;13.70;13.20;;;17.30;91.20;;;;;;5032624;28;20877;-51
2022/01/07 03:52:33;;;;;;;13.00;12.60;;;17.30;91.30;;;;;;5037940;28;20498;-48
2022/01/07 03:55:00;;;;;;;13.53;13.13;;;17.30;91.30;;;;;;5052490;28;20441;-50
2022/01/07 03:57:27;;;;;;;13.20;12.80;;;17.20;91.30;;;;;;5052465;28;20440;-47
2022/01/07 03:59:53;;;;;;;13.70;13.30;;;17.20;91.40;;;;;;5052429;28;20470;-49
2022/01/07 04:02:20;;;;;;;13.17;12.77;;;17.20;91.50;;;;;;5047879;28;20469;-48
2022/01/07 04:04:48;;;;;;;13.60;13.20;;;17.30;91.60;;;;;;5032466;28;20441;-48
2022/01/07 04:07:15;;;;;;;13.13;12.63;;;17.30;91.50;;;;;;5032433;28;20488;-48
2022/01/07 04:09:42;;;;;;;13.40;13.00;;;17.30;91.50;;;;;;5032341;28;20453;-47
2022/01/07 04:12:09;;;;;;;13.33;12.93;;;17.30;91.60;;;;;;5033722;28;20472;-54
2022/01/07 04:14:36;;;;;;;13.87;13.47;;;17.30;91.50;;;;;;5052256;28;20451;-47
2022/01/07 04:17:03;;;;;;;13.20;12.80;;;17.30;91.50;;;;;;5052206;28;20440;-48
2022/01/07 04:19:30;;;;;;;13.60;13.20;;;17.30;91.50;;;;;;5052247;28;20448;-46
2022/01/07 04:21:58;;;;;;;12.77;12.47;;;17.30;91.60;;;;;;5051341;28;20487;-50
2022/01/07 04:24:25;;;;;;;13.40;13.00;;;17.30;91.60;;;;;;5032039;28;20449;-49
2022/01/07 04:26:51;;;;;;;13.87;13.47;;;17.30;91.70;;;;;;5031926;28;20485;-47
2022/01/07 04:29:18;;;;;;;13.03;12.63;;;17.20;91.80;;;;;;5032044;28;20471;-48
2022/01/07 04:31:45;;;;;;;11.97;11.67;;;17.30;91.80;;;;;;5031753;28;20981;-48
2022/01/07 04:34:12;;;;;;;12.30;12.00;;;17.30;91.60;;;;;;5050015;28;20819;-49
2022/01/07 04:36:38;;;;;;;12.87;12.47;;;17.30;91.60;;;;;;5052022;28;20443;-48
2022/01/07 04:39:06;;;;;;;12.67;12.37;;;17.40;91.60;;;;;;5051870;28;20444;-50
2022/01/07 04:41:33;;;;;;;12.63;12.27;;;17.30;91.50;;;;;;5051514;28;20440;-50
2022/01/07 04:44:00;;;;;;;12.83;12.33;;;17.30;91.50;;;;;;5034611;28;20448;-49
2022/01/07 04:46:26;;;;;;;13.17;12.77;;;17.30;91.80;;;;;;5031663;28;20485;-48
2022/01/07 04:48:53;;;;;;;13.23;12.80;;;17.30;92.00;;;;;;5031707;28;20456;-51
2022/01/07 04:51:20;;;;;;;11.93;11.63;;;17.30;91.80;;;;;;5031744;28;20521;-48
2022/01/07 04:53:46;;;;;;;13.00;12.60;;;17.30;91.90;;;;;;5045644;28;20475;-46
2022/01/07 04:56:14;;;;;;;12.83;12.53;;;17.30;91.90;;;;;;5051659;28;20444;-48
2022/01/07 04:58:41;;;;;;;12.93;12.53;;;17.30;91.80;;;;;;5051598;28;20452;-47
2022/01/07 05:01:08;;;;;;;12.90;12.60;;;17.40;91.80;;;;;;5051514;28;20455;-48
2022/01/07 05:03:35;;;;;;;13.93;13.50;;;17.40;91.80;;;;;;5038261;28;20496;-49
2022/01/07 05:06:15;;;;;;;12.97;12.63;;;17.30;92.10;;;;;;5031360;28;20506;-47
2022/01/07 05:08:42;;;;;;;14.73;14.23;;;17.40;92.10;;;;;;5033163;28;20958;-46
2022/01/07 05:11:09;;;;;;;14.10;13.60;;;17.40;92.50;;;;;;5038157;28;20828;-46
2022/01/07 05:13:37;;;;;;;14.10;13.70;;;17.30;92.60;;;;;;5050065;28;21009;-47
2022/01/07 05:16:05;;;;;;;14.10;13.60;;;17.30;93.20;;;;;;5057849;28;20851;-47
2022/01/07 05:18:31;;;;;;;14.70;14.20;;;17.30;93.00;;;;;;5058065;28;20455;-48
2022/01/07 05:20:58;;;;;;;14.20;13.57;;;17.40;93.10;;;;;;5057821;28;20447;-49
2022/01/07 05:23:25;;;;;;;13.80;13.40;;;17.40;93.00;;;;;;5046525;28;20495;-48
2022/01/07 05:25:51;;;;;;;13.87;13.47;;;17.40;92.90;;;;;;5037884;28;20815;-47
2022/01/07 05:28:18;;;;;;;14.00;13.60;;;17.40;92.90;;;;;;5037934;28;20530;-46
2022/01/07 05:30:46;;;;;;;14.57;14.07;;;17.40;92.80;;;;;;5037932;28;20448;-49
2022/01/07 05:33:13;;;;;;;14.20;13.70;;;17.40;92.80;;;;;;5046203;28;20471;-48
2022/01/07 05:35:39;;;;;;;14.43;14.03;;;17.40;92.80;;;;;;5057817;28;20452;-47
2022/01/07 05:38:06;;;;;;;14.70;14.10;;;17.40;92.60;;;;;;5057780;28;20440;-47
2022/01/07 05:40:33;;;;;;;17.00;15.70;;;17.40;93.80;;;;;;5057752;28;20447;-50
2022/01/07 05:42:59;;;;;;;18.47;16.67;;;17.50;99.90;;;;;;5050450;28;20465;-47
2022/01/07 05:45:26;;;;;;;18.20;16.60;;;17.60;99.90;;;;;;5037871;28;20445;-50
2022/01/07 05:47:54;;;;;;;17.13;15.43;;;17.70;99.90;;;;;;5037595;28;20856;-51
2022/01/07 05:50:21;;;;;;;16.53;15.43;;;17.80;99.90;;;;;;5041356;28;20448;-48
2022/01/07 05:52:48;;;;;;;18.13;16.77;;;18.00;99.90;;;;;;5057539;28;20475;-47
2022/01/07 05:55:15;;;;;;;19.30;17.73;;;18.70;99.90;;;;;;5057643;28;20964;-47
2022/01/07 05:57:41;;;;;;;20.50;18.50;;;19.20;99.90;;;;;;5057632;28;20444;-50
2022/01/07 06:00:10;;;;;;;20.93;19.33;;;19.50;99.90;;;;;;5055466;28;20917;-46
2022/01/07 06:02:37;;;;;;;23.93;19.17;;;19.80;99.90;;;;;;5037432;28;20476;-47
2022/01/07 06:05:06;;;;;;;20.30;18.77;;;19.90;99.90;;;;;;5037604;28;20457;-47
2022/01/07 06:07:32;;;;;;;24.50;19.40;;;20.00;99.90;;;;;;5041025;28;20480;-47
2022/01/07 06:09:59;;;;;;;22.37;20.03;;;20.10;99.90;;;;;;5041698;28;20853;-48
2022/01/07 06:12:27;;;;;;;20.30;18.73;;;20.20;99.90;;;;;;5054287;28;20482;-48
2022/01/07 06:14:53;;;;;;;21.80;19.90;;;20.30;99.90;;;;;;5057492;28;20521;-47
2022/01/07 06:17:20;;;;;;;20.00;18.40;;;20.30;99.90;;;;;;5057481;28;20471;-47
2022/01/07 06:19:47;;;;;;;20.77;18.93;;;20.30;99.90;;;;;;5055945;28;20821;-49
2022/01/07 06:22:15;;;;;;;19.30;18.20;;;20.30;99.90;;;;;;5040003;28;20870;-48
2022/01/07 06:24:41;;;;;;;19.63;18.37;;;20.30;99.90;;;;;;5034232;28;20456;-48
2022/01/07 06:27:08;;;;;;;19.80;18.40;;;20.30;99.90;;;;;;5034373;28;20492;-47
2022/01/07 06:29:35;;;;;;;19.80;18.40;;;20.30;99.90;;;;;;5034248;28;20450;-51
2022/01/07 06:32:02;;;;;;;20.30;18.60;;;20.30;99.90;;;;;;5033585;28;20817;-48
2022/01/07 06:34:29;;;;;;;20.17;18.87;;;20.30;99.90;;;;;;5034097;28;20452;-50
2022/01/07 06:36:55;;;;;;;18.90;17.70;;;20.30;99.90;;;;;;5034000;28;20927;-47
2022/01/07 06:39:23;;;;;;;20.80;19.17;;;20.40;99.90;;;;;;5037487;28;20452;-48
2022/01/07 06:41:51;;;;;;;19.10;17.77;;;20.40;99.90;;;;;;5033824;28;20465;-46
2022/01/07 06:44:18;;;;;;;19.00;17.90;;;20.30;99.90;;;;;;5033889;28;20536;-46
2022/01/07 06:46:45;;;;;;;19.10;17.60;;;20.30;99.90;;;;;;5033748;28;20480;-47
2022/01/07 06:49:13;;;;;;;18.90;17.47;;;20.20;99.90;;;;;;5033829;28;20453;-46
2022/01/07 06:51:40;;;;;;;20.33;18.57;;;20.20;99.90;;;;;;5033508;28;20935;-46
2022/01/07 06:54:11;;;;;;;18.43;17.33;;;20.20;99.90;;;;;;5033677;28;20441;-47
2022/01/07 06:56:39;;;;;;;19.10;17.80;;;20.20;99.90;;;;;;5033621;28;20446;-47
2022/01/07 06:59:05;;;;;;;18.37;17.17;;;20.10;99.90;;;;;;5033587;28;20496;-46
2022/01/07 07:01:32;;;;;;;17.77;16.73;;;20.20;99.70;;;;;;5033428;28;20821;-45
2022/01/07 07:03:59;;;;;;;17.97;17.07;;;20.20;99.30;;;;;;5033497;28;20456;-48
2022/01/07 07:06:25;;;;;;;18.53;17.60;;;20.10;98.90;;;;;;5033570;28;20449;-45
2022/01/07 07:08:52;;;;;;;19.23;17.93;;;20.10;98.60;;;;;;5033353;28;20487;-46
2022/01/07 07:11:19;;;;;;;17.80;16.80;;;20.10;98.30;;;;;;5033456;28;20449;-46
2022/01/07 07:13:47;;;;;;;17.73;16.97;;;20.00;98.10;;;;;;5033058;28;20982;-47
2022/01/07 07:16:14;;;;;;;17.87;16.80;;;20.00;97.70;;;;;;5033310;28;20456;-50
2022/01/07 07:18:41;;;;;;;17.73;16.77;;;20.00;97.40;;;;;;5033466;28;20456;-48
2022/01/07 07:21:08;;;;;;;17.57;16.33;;;20.00;97.00;;;;;;5033213;28;20453;-48
2022/01/07 07:23:34;;;;;;;17.13;16.37;;;19.90;96.60;;;;;;5032897;28;20469;-46
2022/01/07 07:26:01;;;;;;;16.93;15.50;;;19.90;96.40;;;;;;5033087;28;20453;-46
2022/01/07 07:28:28;;;;;;;15.93;15.13;;;19.90;96.20;;;;;;5033099;28;20484;-49
2022/01/07 07:31:00;;;;;;;15.97;15.07;;;19.90;95.90;;;;;;5033132;28;20453;-46
2022/01/07 07:33:43;;;;;;;15.40;14.70;;;19.80;95.60;;;;;;5032508;28;20478;-46
2022/01/07 07:36:30;;;;;;;16.87;15.80;;;19.80;95.30;;;;;;5032971;28;20448;-46
2022/01/07 07:38:58;;;;;;;17.03;15.80;;;19.80;95.10;;;;;;5032883;28;20442;-47
2022/01/07 07:41:25;;;;;;;15.90;15.10;;;19.70;94.90;;;;;;5032968;28;20449;-47
2022/01/07 07:43:52;;;;;;;16.30;15.50;;;19.70;94.70;;;;;;5032732;28;20834;-49
2022/01/07 07:46:20;;;;;;;15.57;14.60;;;19.60;94.60;;;;;;5032901;28;20449;-47
2022/01/07 07:48:48;;;;;;;15.23;14.53;;;19.60;94.40;;;;;;5032635;28;20492;-49
2022/01/07 07:51:15;;;;;;;15.00;14.27;;;19.60;94.20;;;;;;5032603;28;20452;-46
2022/01/07 07:53:42;;;;;;;14.17;13.53;;;19.60;94.10;;;;;;5032275;28;20469;-46
2022/01/07 07:56:11;;;;;;;14.60;13.70;;;19.50;93.90;;;;;;5032687;28;20449;-46
2022/01/07 07:58:38;;;;;;;15.00;14.30;;;19.50;93.80;;;;;;5032630;28;20446;-46
2022/01/07 08:01:06;;;;;;;15.10;14.40;;;19.50;93.60;;;;;;5032420;28;20930;-47
2022/01/07 08:03:34;;;;;;;15.20;14.60;;;19.40;93.50;;;;;;5032182;28;21160;-46
2022/01/07 08:06:01;;;;;;;15.10;14.50;;;19.30;93.50;;;;;;5032293;28;20450;-49
2022/01/07 08:08:28;;;;;;;14.53;13.73;;;19.20;93.30;;;;;;5032253;28;20488;-47
2022/01/07 08:10:58;;;;;;;15.23;14.63;;;19.10;93.40;;;;;;5032189;28;20498;-49
2022/01/07 08:13:30;;;;;;;14.47;13.67;;;19.10;93.50;;;;;;5032629;28;20488;-50
2022/01/07 08:16:00;;;;;;;14.43;13.83;;;18.90;93.80;;;;;;5032750;28;20449;-47
2022/01/07 08:18:27;;;;;;;14.57;13.93;;;18.90;93.60;;;;;;5032745;28;20503;-49
2022/01/07 08:20:56;;;;;;;14.40;13.80;;;18.80;93.60;;;;;;5032261;28;20453;-48
2022/01/07 08:23:22;;;;;;;15.17;14.37;;;18.80;93.60;;;;;;5032333;28;20461;-48
2022/01/07 08:25:50;;;;;;;14.60;14.00;;;18.70;93.50;;;;;;5032586;28;20448;-47
2022/01/07 08:28:17;;;;;;;15.30;14.70;;;18.70;93.60;;;;;;5032530;28;20485;-49
2022/01/07 08:36:16;;;;;;;14.33;13.67;;;18.40;93.60;;;;;;5032479;28;20420;-48
2022/01/07 08:38:43;;;;;;;14.10;13.53;;;18.30;93.90;;;;;;5031996;28;20812;-46
2022/01/07 08:41:10;;;;;;;14.57;13.90;;;18.30;93.90;;;;;;5032144;28;20448;-49
2022/01/07 08:43:37;;;;;;;14.43;13.77;;;18.20;93.90;;;;;;5031282;28;20469;-52
2022/01/07 08:46:06;;;;;;;14.60;13.90;;;18.10;94.20;;;;;;5032473;28;20441;-48
2022/01/07 08:48:34;;;;;;;14.00;13.30;;;18.10;94.30;;;;;;5032307;28;20495;-46
2022/01/07 08:51:00;;;;;;;13.77;13.37;;;18.00;94.30;;;;;;5032528;28;20830;-47
2022/01/07 08:53:28;;;;;;;14.13;13.63;;;18.00;94.30;;;;;;5032442;28;20473;-50
2022/01/07 08:55:55;;;;;;;14.77;14.27;;;18.00;94.30;;;;;;5032437;28;20519;-48
2022/01/07 08:58:22;;;;;;;13.60;13.20;;;18.00;94.30;;;;;;5032314;28;20441;-51
2022/01/07 09:00:49;;;;;;;14.07;13.67;;;17.90;94.10;;;;;;5032071;28;20457;-48
2022/01/07 09:03:16;;;;;;;15.50;14.80;;;17.90;94.00;;;;;;5032197;28;20468;-47
2022/01/07 09:05:42;;;;;;;14.07;13.67;;;18.00;93.80;;;;;;5032378;28;20449;-48
2022/01/07 09:08:11;;;;;;;13.77;13.20;;;17.90;93.70;;;;;;5032041;28;20485;-50
2022/01/07 09:10:40;;;;;;;14.70;14.10;;;17.80;93.60;;;;;;5032521;28;20481;-49
2022/01/07 09:13:07;;;;;;;13.60;13.07;;;17.80;93.80;;;;;;5032126;28;20501;-47
2022/01/07 09:15:34;;;;;;;14.00;13.50;;;17.70;93.60;;;;;;5032867;28;20448;-48
2022/01/07 09:18:09;;;;;;;14.43;13.80;;;17.70;93.90;;;;;;5032518;28;20441;-47
2022/01/07 09:20:36;;;;;;;13.90;13.30;;;17.80;94.10;;;;;;5032330;28;20969;-50
2022/01/07 09:23:02;;;;;;;13.80;13.40;;;18.10;93.80;;;;;;5031807;28;20468;-49
2022/01/07 09:25:29;;;;;;;13.67;13.20;;;18.20;93.10;;;;;;5032522;28;20456;-50
2022/01/07 09:27:57;;;;;;;14.50;14.10;;;18.40;92.40;;;;;;5031889;28;20543;-51
2022/01/07 09:30:24;;;;;;;14.70;14.30;;;18.50;91.60;;;;;;5031889;28;20453;-49
2022/01/07 09:32:51;;;;;;;14.90;14.40;;;18.50;91.30;;;;;;5031563;28;21006;-48
2022/01/07 09:35:18;;;;;;;14.53;14.13;;;18.60;91.00;;;;;;5031990;28;20445;-52
2022/01/07 09:37:45;;;;;;;14.00;13.60;;;18.60;90.60;;;;;;5031845;28;20806;-51
2022/01/07 09:40:13;;;;;;;13.73;13.33;;;18.60;90.20;;;;;;5031513;28;20449;-49
2022/01/07 09:42:40;;;;;;;13.13;12.43;;;18.70;90.00;;;;;;5031409;28;20468;-47
2022/01/07 09:45:09;;;;;;;13.20;12.70;;;18.60;89.60;;;;;;5031886;28;20452;-47
2022/01/07 09:47:35;;;;;;;12.70;12.40;;;18.60;89.00;;;;;;5031632;28;20441;-48
2022/01/07 09:50:02;;;;;;;14.10;13.70;;;18.60;88.50;;;;;;5032092;28;20445;-48
2022/01/07 09:52:29;;;;;;;14.50;14.10;;;18.60;88.40;;;;;;5031873;28;20814;-48
2022/01/07 09:54:55;;;;;;;13.60;13.20;;;18.50;88.10;;;;;;5033266;28;20453;-49
2022/01/07 09:57:22;;;;;;;13.20;12.80;;;18.50;88.40;;;;;;5035554;28;20449;-49
2022/01/07 09:59:53;;;;;;;14.03;13.40;;;18.40;88.20;;;;;;5035226;28;20453;-50
2022/01/07 10:02:22;;;;;;;13.43;13.00;;;18.40;88.60;;;;;;5035351;28;20500;-48
2022/01/07 10:04:49;;;;;;;13.40;12.90;;;18.30;88.50;;;;;;5035511;28;20445;-48
2022/01/07 10:07:17;;;;;;;12.63;12.23;;;18.30;88.50;;;;;;5035271;28;20456;-47
2022/01/07 10:09:58;;;;;;;12.80;12.40;;;18.20;88.30;;;;;;5035477;28;20491;-47
2022/01/07 10:12:26;;;;;;;12.30;11.90;;;18.20;88.60;;;;;;5035363;28;20480;-50
2022/01/07 10:15:11;;;;;;;12.97;12.57;;;18.10;88.60;;;;;;5035431;28;20445;-48
2022/01/07 10:17:40;;;;;;;12.90;12.50;;;18.10;88.80;;;;;;5035275;28;20441;-50
2022/01/07 10:20:07;;;;;;;13.47;13.07;;;18.00;88.50;;;;;;5035101;28;20444;-48
2022/01/07 10:22:49;;;;;;;13.40;13.00;;;18.00;89.20;;;;;;5034921;28;20465;-50
2022/01/07 10:25:22;;;;;;;13.60;13.20;;;17.90;89.20;;;;;;5046278;28;20447;-51
2022/01/07 10:27:49;;;;;;;13.47;13.07;;;17.90;89.60;;;;;;5037505;28;20443;-51
2022/01/07 10:30:25;;;;;;;13.47;13.07;;;17.90;90.40;;;;;;5054196;28;20805;-47
2022/01/07 10:32:54;;;;;;;13.60;13.20;;;17.80;90.60;;;;;;5053850;28;20558;-49
2022/01/07 10:35:23;;;;;;;14.40;14.00;;;17.80;90.90;;;;;;5054120;28;20510;-48
2022/01/07 10:37:53;;;;;;;14.40;14.00;;;17.80;91.20;;;;;;5054192;28;20458;-48
2022/01/07 10:40:26;;;;;;;14.80;14.40;;;17.80;91.50;;;;;;5054212;28;20449;-49
2022/01/07 10:42:54;;;;;;;14.10;13.60;;;17.80;91.90;;;;;;5053728;28;20491;-48
2022/01/07 10:45:22;;;;;;;14.13;13.73;;;17.80;91.80;;;;;;5053929;28;20548;-47
2022/01/07 10:47:54;;;;;;;14.23;13.73;;;17.80;92.20;;;;;;5053932;28;20452;-50
2022/01/07 10:50:23;;;;;;;13.60;13.20;;;17.80;92.40;;;;;;5053863;28;20451;-49
2022/01/07 10:52:50;;;;;;;13.90;13.50;;;17.80;92.50;;;;;;5053499;28;20460;-49
2022/01/07 10:55:19;;;;;;;13.67;13.27;;;17.80;92.60;;;;;;5053626;28;20447;-54
2022/01/07 10:57:48;;;;;;;13.80;13.10;;;17.80;93.00;;;;;;5053802;28;20451;-52
2022/01/07 11:00:17;;;;;;;13.27;12.97;;;17.80;93.00;;;;;;5053636;28;20829;-52
2022/01/07 11:02:43;;;;;;;12.80;12.50;;;17.80;92.80;;;;;;5053375;28;20464;-50
2022/01/07 11:05:11;;;;;;;14.57;14.07;;;17.80;92.60;;;;;;5053561;28;20441;-50
2022/01/07 11:07:39;;;;;;;13.63;13.23;;;17.90;92.70;;;;;;5052816;28;20813;-50
2022/01/07 11:10:08;;;;;;;13.20;12.60;;;17.80;92.40;;;;;;5053443;28;20510;-50
2022/01/07 11:12:36;;;;;;;12.87;12.57;;;17.80;92.50;;;;;;5053002;28;20479;-52
2022/01/07 11:15:05;;;;;;;12.80;12.40;;;17.80;92.20;;;;;;5053324;28;20452;-51
2022/01/07 11:17:31;;;;;;;13.33;12.87;;;17.80;92.10;;;;;;5053266;28;20460;-48
2022/01/07 11:20:01;;;;;;;12.67;12.27;;;18.00;92.20;;;;;;5053298;28;20453;-50
2022/01/07 11:22:30;;;;;;;13.50;13.10;;;18.10;91.90;;;;;;5052990;28;20464;-51
2022/01/07 11:25:10;;;;;;;14.40;14.00;;;18.20;91.50;;;;;;5053432;28;20452;-50
2022/01/07 11:27:48;;;;;;;11.90;11.60;;;18.20;90.90;;;;;;5053088;28;20455;-49
2022/01/07 11:30:17;;;;;;;12.33;12.03;;;18.30;90.90;;;;;;5052934;28;20997;-50
2022/01/07 11:32:45;;;;;;;12.80;12.50;;;18.30;90.20;;;;;;5052727;28;21116;-50
2022/01/07 11:35:49;;;;;;;13.63;13.23;;;18.30;90.40;;;;;;5053010;28;20448;-49
2022/01/07 11:38:39;;;;;;;13.73;13.23;;;18.30;90.00;;;;;;5052943;28;20436;-51
2022/01/07 11:41:14;;;;;;;13.07;12.77;;;18.30;89.50;;;;;;5053493;28;20444;-49
2022/01/07 11:43:47;;;;;;;13.07;12.77;;;18.30;89.90;;;;;;5052707;28;20462;-49
2022/01/07 11:46:31;;;;;;;12.90;12.50;;;18.30;89.80;;;;;;5052804;28;20444;-49
2022/01/07 11:49:01;;;;;;;12.77;12.37;;;18.30;89.10;;;;;;5052743;28;20484;-48
2022/01/07 11:51:43;;;;;;;11.87;11.57;;;18.30;88.50;;;;;;5052637;28;20502;-49
2022/01/07 11:54:13;;;;;;;13.20;12.80;;;18.30;87.20;;;;;;5052461;28;20494;-50
2022/01/07 11:56:41;;;;;;;12.57;12.17;;;18.30;88.10;;;;;;5052472;28;20550;-50
2022/01/07 11:59:26;;;;;;;12.20;11.90;;;18.30;88.30;;;;;;5052519;28;20444;-50
2022/01/07 12:02:03;;;;;;;12.70;12.40;;;18.20;87.30;;;;;;5052199;28;20479;-50
2022/01/07 12:04:31;;;;;;;13.30;12.90;;;18.20;88.50;;;;;;5052278;28;20479;-51
2022/01/07 12:07:00;;;;;;;12.37;12.07;;;18.10;86.40;;;;;;5052342;28;20444;-51
2022/01/07 12:09:36;;;;;;;12.57;12.17;;;18.10;87.80;;;;;;5052425;28;20557;-48
2022/01/07 12:12:06;;;;;;;13.03;12.63;;;18.00;87.20;;;;;;5051905;28;20483;-51
2022/01/07 12:14:38;;;;;;;12.60;12.27;;;18.00;87.80;;;;;;5052166;28;20455;-48
2022/01/07 12:17:11;;;;;;;13.03;12.63;;;17.90;88.00;;;;;;5052105;28;20444;-51
2022/01/07 12:20:17;;;;;;;12.33;12.03;;;17.90;87.40;;;;;;5051238;28;20462;-50
2022/01/07 12:22:52;;;;;;;12.90;12.50;;;17.80;88.60;;;;;;5051863;28;20492;-49
2022/01/07 12:25:21;;;;;;;13.20;12.90;;;17.80;87.60;;;;;;5051951;28;20439;-48
2022/01/07 12:27:48;;;;;;;12.80;12.50;;;17.80;89.10;;;;;;5051906;28;20873;-51
2022/01/07 12:30:15;;;;;;;12.60;12.30;;;17.70;89.50;;;;;;5051761;28;20480;-50
2022/01/07 12:32:42;;;;;;;12.40;12.10;;;17.80;89.00;;;;;;5051537;28;20468;-52
2022/01/07 12:35:12;;;;;;;12.77;12.47;;;17.80;88.70;;;;;;5052048;28;20475;-50
2022/01/07 12:37:39;;;;;;;12.23;11.93;;;17.80;88.90;;;;;;5052048;28;20455;-51
2022/01/07 12:40:08;;;;;;;12.70;12.30;;;17.90;88.80;;;;;;5052137;28;20815;-52